createdAt,value
2018-05-11T00:00:06.544Z,2.00
2018-05-11T00:02:35.540Z,1.83
2018-05-11T00:05:03.774Z,1.90
2018-05-11T00:07:31.999Z,2.03
2018-05-11T00:10:01.009Z,1.87
2018-05-11T00:12:29.255Z,1.90
2018-05-11T00:14:57.495Z,2.13
2018-05-11T00:17:25.774Z,1.60
2018-05-11T00:19:54.751Z,1.73
2018-05-11T00:22:22.976Z,1.57
2018-05-11T00:24:51.988Z,1.73
2018-05-11T00:27:20.217Z,1.47
2018-05-11T00:29:48.459Z,2.00
2018-05-11T00:32:16.690Z,1.93
2018-05-11T00:34:45.691Z,1.70
2018-05-11T00:37:13.936Z,1.77
2018-05-11T00:39:42.160Z,1.83
2018-05-11T00:42:10.389Z,1.50
2018-05-11T00:44:38.740Z,1.80
2018-05-11T00:47:06.967Z,1.60
2018-05-11T00:49:35.947Z,1.70
2018-05-11T00:52:04.212Z,1.63
2018-05-11T00:54:33.347Z,1.77
2018-05-11T00:57:01.587Z,1.70
2018-05-11T00:59:29.816Z,1.60
2018-05-11T01:01:58.051Z,1.50
2018-05-11T01:04:27.057Z,1.80
2018-05-11T01:06:55.296Z,1.70
2018-05-11T01:09:23.528Z,1.80
2018-05-11T01:11:52.053Z,1.53
2018-05-11T01:14:21.048Z,1.33
2018-05-11T01:16:50.193Z,2.03
2018-05-11T01:19:18.395Z,1.80
2018-05-11T01:21:46.613Z,1.70
2018-05-11T01:24:14.839Z,1.40
2018-05-11T01:26:43.077Z,1.50
2018-05-11T01:29:12.076Z,1.60
2018-05-11T01:31:40.301Z,1.87
2018-05-11T01:34:09.306Z,1.57
2018-05-11T01:36:37.540Z,1.53
2018-05-11T01:39:06.191Z,1.67
2018-05-11T01:41:34.409Z,1.50
2018-05-11T01:44:02.901Z,1.40
2018-05-11T01:46:31.135Z,1.53
2018-05-11T01:48:59.376Z,1.23
2018-05-11T01:51:27.669Z,1.70
2018-05-11T01:53:55.889Z,1.70
2018-05-11T01:56:24.117Z,1.40
2018-05-11T01:58:53.284Z,1.40
2018-05-11T02:01:21.977Z,1.47
2018-05-11T02:03:50.210Z,1.50
2018-05-11T02:06:18.440Z,1.30
2018-05-11T02:08:47.069Z,1.60
2018-05-11T02:11:15.300Z,1.60
2018-05-11T02:13:43.531Z,1.20
2018-05-11T02:16:12.547Z,1.20
2018-05-11T02:18:41.230Z,1.40
2018-05-11T02:21:09.801Z,1.30
2018-05-11T02:23:38.170Z,1.20
2018-05-11T02:26:06.410Z,1.20
2018-05-11T02:28:34.750Z,1.70
2018-05-11T02:31:03.317Z,1.40
2018-05-11T02:33:31.686Z,1.13
2018-05-11T02:35:59.922Z,1.53
2018-05-11T02:38:29.090Z,1.10
2018-05-11T02:40:58.097Z,1.57
2018-05-11T02:43:26.370Z,1.20
2018-05-11T02:45:54.600Z,1.17
2018-05-11T02:48:23.238Z,1.60
2018-05-11T02:50:51.470Z,1.20
2018-05-11T02:53:19.700Z,1.10
2018-05-11T02:55:47.929Z,1.40
2018-05-11T02:58:16.165Z,1.40
2018-05-11T03:00:45.147Z,1.60
2018-05-11T03:03:13.389Z,1.20
2018-05-11T03:05:42.463Z,1.23
2018-05-11T03:08:11.457Z,1.60
2018-05-11T03:10:39.722Z,1.20
2018-05-11T03:13:07.950Z,1.13
2018-05-11T03:15:36.193Z,1.13
2018-05-11T03:18:04.820Z,1.00
2018-05-11T03:20:33.820Z,1.20
2018-05-11T03:23:02.069Z,1.33
2018-05-11T03:25:30.293Z,1.17
2018-05-11T03:27:58.919Z,1.00
2018-05-11T03:30:27.143Z,1.10
2018-05-11T03:32:55.390Z,1.30
2018-05-11T03:35:23.612Z,1.47
2018-05-11T03:37:52.248Z,1.30
2018-05-11T03:40:21.252Z,1.10
2018-05-11T03:42:50.263Z,1.10
2018-05-11T03:45:19.260Z,1.20
2018-05-11T03:47:47.505Z,1.20
2018-05-11T03:50:15.740Z,1.10
2018-05-11T03:52:43.976Z,1.20
2018-05-11T03:55:12.208Z,1.30
2018-05-11T03:57:40.442Z,1.57
2018-05-11T04:00:08.675Z,1.00
2018-05-11T04:02:48.702Z,1.27
2018-05-11T04:08:47.737Z,1.30
2018-05-11T04:11:16.723Z,1.20
2018-05-11T04:13:45.728Z,0.97
2018-05-11T04:16:13.957Z,0.90
2018-05-11T04:18:42.580Z,1.23
2018-05-11T04:21:11.568Z,1.53
2018-05-11T04:23:40.564Z,1.10
2018-05-11T04:26:08.803Z,1.20
2018-05-11T04:28:37.047Z,1.10
2018-05-11T04:31:05.270Z,1.30
2018-05-11T04:33:33.512Z,1.00
2018-05-11T04:36:01.748Z,0.90
2018-05-11T04:38:30.141Z,1.13
2018-05-11T04:40:58.376Z,0.93
2018-05-11T04:43:27.010Z,1.10
2018-05-11T04:45:55.241Z,1.30
2018-05-11T04:48:24.241Z,1.10
2018-05-11T04:50:53.242Z,0.93
2018-05-11T04:53:22.230Z,1.00
2018-05-11T04:55:51.413Z,1.23
2018-05-11T04:58:19.654Z,1.00
2018-05-11T05:00:47.883Z,1.20
2018-05-11T05:03:16.121Z,0.90
2018-05-11T05:05:44.337Z,0.80
2018-05-11T05:08:12.582Z,1.23
2018-05-11T05:10:41.577Z,1.43
2018-05-11T05:13:10.195Z,0.97
2018-05-11T05:15:38.436Z,1.20
2018-05-11T05:18:06.703Z,1.00
2018-05-11T05:20:35.694Z,1.13
2018-05-11T05:23:03.920Z,0.90
2018-05-11T05:25:32.657Z,0.90
2018-05-11T05:28:00.878Z,1.10
2018-05-11T05:30:29.110Z,1.10
2018-05-11T05:32:57.353Z,1.20
2018-05-11T05:35:25.595Z,1.20
2018-05-11T05:37:53.827Z,1.00
2018-05-11T05:40:22.827Z,1.27
2018-05-11T05:42:51.071Z,1.23
2018-05-11T05:45:19.679Z,1.00
2018-05-11T05:47:47.909Z,1.10
2018-05-11T05:50:16.138Z,0.83
2018-05-11T05:52:44.364Z,0.90
2018-05-11T05:55:12.601Z,0.70
2018-05-11T05:57:41.490Z,0.90
2018-05-11T06:00:09.724Z,1.00
2018-05-11T06:02:37.969Z,1.10
2018-05-11T06:05:06.397Z,1.00
2018-05-11T06:07:34.633Z,1.00
2018-05-11T06:10:02.858Z,0.80
2018-05-11T06:12:31.103Z,1.10
2018-05-11T06:15:00.188Z,0.90
2018-05-11T06:17:29.194Z,1.00
2018-05-11T06:19:58.189Z,1.00
2018-05-11T06:22:26.409Z,1.10
2018-05-11T06:24:55.111Z,1.00
2018-05-11T06:27:23.268Z,0.77
2018-05-11T06:29:51.503Z,1.17
2018-05-11T06:32:19.733Z,1.00
2018-05-11T06:34:48.727Z,1.20
2018-05-11T06:37:17.735Z,1.40
2018-05-11T06:39:46.729Z,1.23
2018-05-11T06:42:14.981Z,1.00
2018-05-11T06:44:43.199Z,1.23
2018-05-11T06:47:11.439Z,0.90
2018-05-11T06:49:39.672Z,1.00
2018-05-11T06:52:07.912Z,0.90
2018-05-11T06:54:36.148Z,0.97
2018-05-11T06:57:05.140Z,0.77
2018-05-11T06:59:33.398Z,1.10
2018-05-11T07:02:01.630Z,1.00
2018-05-11T07:04:29.869Z,0.93
2018-05-11T07:06:58.103Z,1.00
2018-05-11T07:09:26.332Z,1.00
2018-05-11T07:11:55.353Z,0.90
2018-05-11T07:14:23.575Z,1.00
2018-05-11T07:16:51.829Z,1.00
2018-05-11T07:19:20.378Z,0.90
2018-05-11T07:21:49.052Z,1.20
2018-05-11T07:24:17.317Z,1.10
2018-05-11T07:26:45.682Z,1.10
2018-05-11T07:29:13.975Z,1.10
2018-05-11T07:31:42.151Z,0.83
2018-05-11T07:34:10.379Z,1.10
2018-05-11T07:36:38.614Z,0.80
2018-05-11T07:39:06.843Z,0.97
2018-05-11T07:41:35.857Z,1.10
2018-05-11T07:44:04.657Z,0.97
2018-05-11T07:46:32.904Z,1.00
2018-05-11T07:49:01.899Z,0.90
2018-05-11T07:51:30.179Z,1.20
2018-05-11T07:53:58.378Z,0.80
2018-05-11T07:56:26.625Z,0.77
2018-05-11T07:58:55.641Z,1.07
2018-05-11T08:01:23.876Z,0.80
2018-05-11T08:03:52.114Z,0.93
2018-05-11T08:06:20.352Z,0.97
2018-05-11T08:08:49.341Z,1.00
2018-05-11T08:11:18.206Z,0.90
2018-05-11T08:13:46.507Z,1.40
2018-05-11T08:16:14.753Z,1.20
2018-05-11T08:18:42.982Z,1.17
2018-05-11T08:21:11.229Z,0.90
2018-05-11T08:23:40.324Z,0.97
2018-05-11T08:26:08.699Z,1.00
2018-05-11T08:28:36.935Z,0.73
2018-05-11T08:31:05.173Z,1.10
2018-05-11T08:33:33.400Z,1.00
2018-05-11T08:36:02.524Z,0.87
2018-05-11T08:38:30.795Z,0.97
2018-05-11T08:40:59.001Z,1.10
2018-05-11T08:43:27.348Z,1.53
2018-05-11T08:45:56.348Z,1.10
2018-05-11T08:48:24.575Z,2.87
2018-05-11T08:50:53.213Z,1.53
2018-05-11T08:53:21.684Z,1.50
2018-05-11T08:55:49.973Z,1.40
2018-05-11T08:58:18.318Z,1.33
2018-05-11T09:00:46.548Z,1.80
2018-05-11T09:03:14.964Z,1.80
2018-05-11T09:05:43.975Z,1.60
2018-05-11T09:08:12.971Z,1.17
2018-05-11T09:10:41.207Z,1.43
2018-05-11T09:13:09.702Z,1.40
2018-05-11T09:15:38.349Z,1.37
2018-05-11T09:18:06.584Z,1.37
2018-05-11T09:20:34.802Z,1.70
2018-05-11T09:23:03.442Z,2.00
2018-05-11T09:25:32.065Z,1.53
2018-05-11T09:28:00.304Z,1.70
2018-05-11T09:30:28.533Z,1.90
2018-05-11T09:32:57.531Z,1.97
2018-05-11T09:35:26.163Z,2.30
2018-05-11T09:37:54.400Z,2.30
2018-05-11T09:40:23.551Z,2.77
2018-05-11T09:42:51.767Z,2.67
2018-05-11T09:45:19.997Z,3.87
2018-05-11T09:47:48.242Z,1.97
2018-05-11T09:50:16.525Z,2.37
2018-05-11T09:52:45.514Z,1.73
2018-05-11T09:55:13.816Z,2.70
2018-05-11T09:57:42.065Z,2.23
2018-05-11T10:00:10.295Z,2.70
2018-05-11T10:02:39.621Z,2.53
2018-05-11T10:05:08.232Z,2.63
2018-05-11T10:07:36.473Z,2.07
2018-05-11T10:10:04.705Z,2.30
2018-05-11T10:12:33.889Z,2.33
2018-05-11T10:15:02.128Z,2.40
2018-05-11T10:17:30.381Z,2.37
2018-05-11T10:19:59.376Z,2.20
2018-05-11T10:22:28.388Z,1.57
2018-05-11T10:24:56.642Z,2.80
2018-05-11T10:27:25.636Z,2.23
2018-05-11T10:29:53.868Z,2.50
2018-05-11T10:32:22.112Z,2.20
2018-05-11T10:34:50.345Z,2.23
2018-05-11T10:37:18.574Z,2.20
2018-05-11T10:39:46.887Z,2.00
2018-05-11T10:42:15.051Z,1.90
2018-05-11T10:44:44.784Z,1.80
2018-05-11T10:47:13.064Z,3.03
2018-05-11T10:49:42.159Z,1.70
2018-05-11T10:52:10.784Z,2.70
2018-05-11T10:54:39.029Z,2.23
2018-05-11T10:57:07.261Z,1.37
2018-05-11T10:59:35.488Z,1.47
2018-05-11T11:02:04.031Z,2.47
2018-05-11T11:04:33.028Z,2.40
2018-05-11T11:07:01.275Z,1.73
2018-05-11T11:09:29.578Z,1.87
2018-05-11T11:11:58.577Z,1.73
2018-05-11T11:14:26.807Z,1.60
2018-05-11T11:16:55.135Z,1.57
2018-05-11T11:19:23.521Z,1.77
2018-05-11T11:21:51.753Z,2.20
2018-05-11T11:24:20.383Z,1.80
2018-05-11T11:26:49.017Z,1.90
2018-05-11T11:29:17.244Z,1.73
2018-05-11T11:31:45.488Z,1.87
2018-05-11T11:34:13.970Z,1.33
2018-05-11T11:36:42.534Z,1.67
2018-05-11T11:39:10.768Z,1.60
2018-05-11T11:41:38.988Z,2.07
2018-05-11T11:44:07.637Z,2.80
2018-05-11T11:46:35.859Z,1.57
2018-05-11T11:49:04.097Z,1.50
2018-05-11T11:51:32.346Z,1.93
2018-05-11T11:54:00.573Z,2.00
2018-05-11T11:56:28.913Z,1.90
2018-05-11T11:58:57.064Z,1.37
2018-05-11T12:01:25.288Z,1.80
2018-05-11T12:03:53.582Z,1.80
2018-05-11T12:06:21.819Z,2.10
2018-05-11T12:08:50.478Z,2.20
2018-05-11T12:11:19.701Z,1.90
2018-05-11T12:13:47.935Z,2.07
2018-05-11T12:16:16.933Z,1.80
2018-05-11T12:18:45.304Z,1.60
2018-05-11T12:21:13.636Z,1.43
2018-05-11T12:23:42.309Z,1.40
2018-05-11T12:26:10.936Z,1.40
2018-05-11T12:28:39.175Z,1.50
2018-05-11T12:31:07.407Z,2.07
2018-05-11T12:33:36.432Z,2.00
2018-05-11T12:36:04.644Z,1.90
2018-05-11T12:38:32.880Z,1.60
2018-05-11T12:41:01.122Z,1.30
2018-05-11T12:43:29.428Z,1.80
2018-05-11T12:45:57.664Z,1.10
2018-05-11T12:48:25.907Z,1.73
2018-05-11T12:50:54.140Z,1.80
2018-05-11T12:53:22.373Z,1.90
2018-05-11T12:55:50.604Z,1.73
2018-05-11T12:58:18.840Z,1.50
2018-05-11T13:00:47.088Z,1.90
2018-05-11T13:03:15.309Z,1.60
2018-05-11T13:05:43.765Z,1.60
2018-05-11T13:08:11.996Z,2.00
2018-05-11T13:10:41.000Z,1.60
2018-05-11T13:13:10.001Z,2.17
2018-05-11T13:15:38.224Z,1.87
2018-05-11T13:18:06.458Z,1.67
2018-05-11T13:20:35.560Z,1.77
2018-05-11T13:23:03.700Z,2.10
2018-05-11T13:25:31.933Z,2.60
2018-05-11T13:28:00.176Z,2.27
2018-05-11T13:30:28.434Z,1.90
2018-05-11T13:32:57.409Z,2.57
2018-05-11T13:35:26.412Z,2.07
2018-05-11T13:37:54.641Z,2.00
2018-05-11T13:40:22.889Z,2.00
2018-05-11T13:42:51.169Z,2.10
2018-05-11T13:45:19.397Z,2.70
2018-05-11T13:47:47.640Z,2.17
2018-05-11T13:50:16.366Z,2.00
2018-05-11T13:52:44.590Z,2.17
2018-05-11T13:55:12.829Z,1.63
2018-05-11T13:57:41.085Z,2.10
2018-05-11T14:00:10.068Z,2.30
2018-05-11T14:02:39.056Z,2.00
2018-05-11T14:05:07.302Z,1.80
2018-05-11T14:07:35.536Z,1.60
2018-05-11T14:10:03.774Z,1.80
2018-05-11T14:12:32.006Z,2.30
2018-05-11T14:15:00.243Z,2.30
2018-05-11T14:17:28.691Z,1.70
2018-05-11T14:19:56.925Z,1.80
2018-05-11T14:22:25.558Z,1.77
2018-05-11T14:24:54.264Z,2.50
2018-05-11T14:27:22.495Z,1.90
2018-05-11T14:29:50.741Z,1.50
2018-05-11T14:32:18.966Z,1.30
2018-05-11T14:34:47.246Z,1.73
2018-05-11T14:37:15.497Z,1.83
2018-05-11T14:39:44.488Z,1.97
2018-05-11T14:42:13.494Z,2.40
2018-05-11T14:44:41.730Z,1.60
2018-05-11T14:47:09.968Z,1.60
2018-05-11T14:49:38.523Z,1.70
2018-05-11T14:52:06.888Z,1.60
2018-05-11T14:54:35.128Z,1.70
2018-05-11T14:57:03.356Z,2.43
2018-05-11T14:59:32.363Z,1.63
2018-05-11T15:02:01.360Z,2.07
2018-05-11T15:04:29.754Z,1.53
2018-05-11T15:06:58.005Z,1.80
2018-05-11T15:09:27.024Z,1.50
2018-05-11T15:11:55.387Z,1.87
2018-05-11T15:14:23.750Z,2.07
2018-05-11T15:16:51.993Z,3.80
2018-05-11T15:19:20.236Z,3.62
2018-05-11T15:21:48.488Z,3.70
2018-05-11T15:24:16.719Z,4.57
2018-05-11T15:26:44.965Z,3.40
2018-05-11T15:29:13.296Z,4.23
2018-05-11T15:31:41.935Z,3.30
2018-05-11T15:34:10.168Z,3.40
2018-05-11T15:36:38.716Z,2.60
2018-05-11T15:39:07.729Z,3.50
2018-05-11T15:41:35.963Z,2.33
2018-05-11T15:44:04.202Z,2.70
2018-05-11T15:46:32.432Z,2.30
2018-05-11T15:49:00.756Z,2.43
2018-05-11T15:51:29.093Z,2.03
2018-05-11T15:53:57.464Z,2.30
2018-05-11T15:56:25.711Z,1.87
2018-05-11T15:58:53.938Z,1.80
2018-05-11T16:01:22.176Z,2.00
2018-05-11T16:03:50.404Z,1.90
2018-05-11T16:06:18.706Z,2.17
2018-05-11T16:08:46.960Z,1.50
2018-05-11T16:11:15.300Z,2.03
2018-05-11T16:13:43.919Z,2.77
2018-05-11T16:16:12.143Z,1.87
2018-05-11T16:18:41.136Z,1.80
2018-05-11T16:21:10.153Z,2.60
2018-05-11T16:23:38.387Z,1.70
2018-05-11T16:26:06.621Z,1.80
2018-05-11T16:32:32.768Z,1.70
2018-05-11T16:35:01.002Z,1.73
2018-05-11T16:37:30.005Z,1.90
2018-05-11T16:39:58.247Z,2.47
2018-05-11T16:42:26.486Z,1.63
2018-05-11T16:44:54.731Z,2.67
2018-05-11T16:47:22.959Z,1.77
2018-05-11T16:49:51.183Z,1.50
2018-05-11T16:52:19.411Z,1.40
2018-05-11T16:54:47.655Z,2.03
2018-05-11T16:57:15.898Z,1.93
2018-05-11T16:59:44.126Z,1.67
2018-05-11T17:02:12.545Z,1.90
2018-05-11T17:04:40.788Z,2.00
2018-05-11T17:07:09.208Z,2.07
2018-05-11T17:09:37.449Z,1.37
2018-05-11T17:12:05.736Z,1.53
2018-05-11T17:14:34.750Z,1.70
2018-05-11T17:17:02.981Z,1.50
2018-05-11T17:19:31.199Z,1.47
2018-05-11T17:21:59.450Z,1.27
2018-05-11T17:24:27.686Z,2.03
2018-05-11T17:26:55.973Z,1.47
2018-05-11T17:29:24.212Z,1.30
2018-05-11T17:31:52.450Z,1.43
2018-05-11T17:34:21.084Z,1.50
2018-05-11T17:36:49.328Z,0.97
2018-05-11T17:39:17.558Z,1.40
2018-05-11T17:41:45.900Z,1.50
2018-05-11T17:44:14.460Z,1.43
2018-05-11T17:46:42.691Z,1.27
2018-05-11T17:49:10.956Z,1.70
2018-05-11T17:51:39.184Z,1.33
2018-05-11T17:54:07.413Z,1.30
2018-05-11T17:56:35.669Z,1.40
2018-05-11T17:59:03.910Z,1.30
2018-05-11T18:01:32.148Z,1.40
2018-05-11T18:04:01.148Z,1.30
2018-05-11T18:06:30.157Z,1.40
2018-05-11T18:08:58.379Z,1.50
2018-05-11T18:11:26.611Z,1.10
2018-05-11T18:13:54.837Z,1.90
2018-05-11T18:16:24.611Z,1.23
2018-05-11T18:18:53.248Z,1.43
2018-05-11T18:21:21.478Z,1.50
2018-05-11T18:23:49.721Z,1.20
2018-05-11T18:26:17.955Z,1.30
2018-05-11T18:28:46.188Z,1.50
2018-05-11T18:31:14.424Z,1.57
2018-05-11T18:33:42.666Z,1.20
2018-05-11T18:36:10.898Z,1.43
2018-05-11T18:38:39.139Z,1.27
2018-05-11T18:41:07.371Z,1.03
2018-05-11T18:43:35.601Z,0.90
2018-05-11T18:46:03.839Z,1.90
2018-05-11T18:48:32.075Z,1.30
2018-05-11T18:51:00.331Z,1.00
2018-05-11T18:53:28.838Z,1.23
2018-05-11T18:55:57.289Z,1.20
2018-05-11T18:58:25.521Z,1.13
2018-05-11T19:00:53.770Z,1.17
2018-05-11T19:03:22.519Z,1.37
2018-05-11T19:05:50.757Z,0.90
2018-05-11T19:08:18.992Z,1.27
2018-05-11T19:10:47.314Z,1.10
2018-05-11T19:13:15.554Z,1.20
2018-05-11T19:15:43.788Z,1.17
2018-05-11T19:18:12.253Z,1.20
2018-05-11T19:20:41.268Z,1.03
2018-05-11T19:23:09.488Z,1.27
2018-05-11T19:25:37.721Z,1.10
2018-05-11T19:28:05.944Z,1.13
2018-05-11T19:30:34.189Z,1.07
2018-05-11T19:33:02.414Z,1.20
2018-05-11T19:35:31.413Z,0.90
2018-05-11T19:37:59.630Z,1.20
2018-05-11T19:40:27.884Z,1.33
2018-05-11T19:42:56.129Z,1.47
2018-05-11T19:45:24.349Z,1.00
2018-05-11T19:47:52.589Z,1.10
2018-05-11T19:50:21.575Z,1.13
2018-05-11T19:52:49.816Z,1.50
2018-05-11T19:55:18.063Z,1.10
2018-05-11T19:57:46.298Z,1.00
2018-05-11T20:00:16.105Z,0.97
2018-05-11T20:02:45.095Z,1.20
2018-05-11T20:05:14.093Z,1.30
2018-05-11T20:07:42.344Z,1.20
2018-05-11T20:10:10.560Z,1.30
2018-05-11T20:12:38.800Z,0.70
2018-05-11T20:15:07.522Z,1.13
2018-05-11T20:17:35.757Z,1.10
2018-05-11T20:20:04.002Z,1.00
2018-05-11T20:22:32.237Z,1.10
2018-05-11T20:25:00.594Z,1.10
2018-05-11T20:27:28.720Z,1.00
2018-05-11T20:29:56.954Z,1.00
2018-05-11T20:32:26.283Z,0.90
2018-05-11T20:34:54.501Z,1.10
2018-05-11T20:37:22.741Z,0.80
2018-05-11T20:39:50.974Z,0.80
2018-05-11T20:42:19.218Z,0.90
2018-05-11T20:44:48.950Z,1.00
2018-05-11T20:47:17.181Z,0.90
2018-05-11T20:49:45.422Z,1.10
2018-05-11T20:52:13.852Z,1.00
2018-05-11T20:54:42.406Z,1.00
2018-05-11T20:57:10.644Z,1.10
2018-05-11T20:59:38.885Z,1.30
2018-05-11T21:02:07.104Z,1.00
2018-05-11T21:04:35.346Z,0.87
2018-05-11T21:07:03.809Z,0.97
2018-05-11T21:09:32.056Z,0.97
2018-05-11T21:12:00.280Z,0.63
2018-05-11T21:14:29.523Z,0.97
2018-05-11T21:16:58.104Z,1.10
2018-05-11T21:19:26.348Z,1.13
2018-05-11T21:21:54.568Z,1.10
2018-05-11T21:24:22.794Z,0.80
2018-05-11T21:26:51.061Z,0.80
2018-05-11T21:29:19.288Z,0.90
2018-05-11T21:31:47.514Z,0.90
2018-05-11T21:34:16.005Z,0.90
2018-05-11T21:36:44.236Z,0.70
2018-05-11T21:39:12.464Z,1.20
2018-05-11T21:41:40.705Z,1.00
2018-05-11T21:44:09.706Z,1.20
2018-05-11T21:46:38.714Z,0.93
2018-05-11T21:49:06.976Z,0.70
2018-05-11T21:51:35.206Z,0.77
2018-05-11T21:54:03.841Z,1.10
2018-05-11T21:56:32.070Z,1.03
2018-05-11T21:59:00.302Z,0.80
2018-05-11T22:01:28.636Z,0.70
2018-05-11T22:03:57.646Z,1.00
2018-05-11T22:06:25.879Z,0.70
2018-05-11T22:08:54.394Z,1.03
2018-05-11T22:11:22.619Z,0.70
2018-05-11T22:13:50.854Z,0.77
2018-05-11T22:16:19.084Z,0.80
2018-05-11T22:18:47.320Z,0.93
2018-05-11T22:21:15.545Z,1.13
2018-05-11T22:23:43.783Z,0.80
2018-05-11T22:26:12.013Z,0.80
2018-05-11T22:28:41.232Z,0.90
2018-05-11T22:31:09.456Z,0.80
2018-05-11T22:33:39.200Z,0.90
2018-05-11T22:36:07.863Z,0.80
2018-05-11T22:38:36.857Z,0.80
2018-05-11T22:41:05.885Z,0.77
2018-05-11T22:43:34.126Z,0.80
2018-05-11T22:46:02.366Z,0.90
2018-05-11T22:48:30.593Z,0.90
2018-05-11T22:50:58.825Z,0.67
2018-05-11T22:53:27.062Z,0.90
2018-05-11T22:55:55.350Z,1.00
2018-05-11T22:58:23.588Z,0.80
2018-05-11T23:00:52.588Z,0.90
2018-05-11T23:03:20.814Z,0.77
2018-05-11T23:05:49.050Z,0.90
2018-05-11T23:08:17.287Z,0.87
2018-05-11T23:10:46.276Z,0.60
2018-05-11T23:13:15.289Z,0.70
2018-05-11T23:15:43.526Z,0.67
2018-05-11T23:18:11.930Z,0.70
2018-05-11T23:20:40.929Z,0.80
2018-05-11T23:23:09.175Z,0.77
2018-05-11T23:25:37.408Z,0.93
2018-05-11T23:28:05.636Z,0.70
2018-05-11T23:30:34.632Z,0.80
2018-05-11T23:33:02.872Z,0.60
2018-05-11T23:35:31.091Z,0.80
2018-05-11T23:37:59.321Z,0.60
2018-05-11T23:40:27.869Z,0.83
2018-05-11T23:42:56.094Z,0.80
2018-05-11T23:45:25.095Z,0.70
2018-05-11T23:47:54.084Z,0.80
2018-05-11T23:50:23.092Z,0.90
2018-05-11T23:52:51.351Z,0.83
2018-05-11T23:55:19.602Z,0.60
2018-05-11T23:57:47.823Z,0.60
